Time;durP1;ratioP1;P1;durP2;ratioP2;P2;SDS_P1;SDS_P2;PMS_P1;PMS_P2;Temp;Humidity;BMP_temperature;BMP_pressure;BME280_temperature;BME280_humidity;BME280_pressure;Samples;Min_cycle;Max_cycle;Signal;HPM_P1;HPM_P2
2024/04/18 05:05:44;;;;;;;13.83;5.73;;;;;;;9.66;72.23;98118.03;6244214;22;21011;31
2024/04/18 05:08:10;;;;;;;;;;;;;;;9.66;70.85;98115.34;5088592;28;20030;-90
2024/04/18 05:10:51;;;;;;;9.13;5.40;;;;;;;9.55;71.05;98097.00;5060582;28;19931;-96
2024/04/18 05:13:18;;;;;;;12.73;7.75;;;;;;;9.64;70.01;98101.41;5043347;28;20027;-95
2024/04/18 05:15:48;;;;;;;8.27;4.57;;;;;;;9.90;69.81;98115.22;5063325;28;20006;-90
2024/04/18 05:18:15;;;;;;;6.13;4.03;;;;;;;9.80;68.75;98110.03;5063402;28;20002;-90
2024/04/18 05:20:57;;;;;;;8.55;4.60;;;;;;;9.91;66.98;98095.31;5037341;28;20433;-95
2024/04/18 05:23:43;;;;;;;;;;;;;;;;;;;;;
2024/04/18 05:26:15;;;;;;;8.80;4.53;;;;;;;10.10;67.31;98106.00;5065623;28;20003;-93
2024/04/18 05:31:00;;;;;;;;;;;;;;;10.24;68.26;98127.53;5036177;28;20009;-91
2024/04/18 05:31:27;;;;;;;17.95;5.63;;;;;;;10.10;68.70;98121.34;5064832;28;19930;-90
2024/04/18 05:33:56;;;;;;;12.30;6.47;;;;;;;10.10;68.62;98127.50;5059353;28;20329;-91
2024/04/18 06:00:44;;;;;;;12.93;6.55;;;;;;;10.65;67.77;98137.59;5080917;28;20075;-95
2024/04/18 06:03:36;;;;;;;;;;;;;;;;;;;;;
2024/04/18 06:06:08;;;;;;;;;;;;;;;10.71;66.52;98171.38;5050966;28;20022;-92
2024/04/18 06:08:34;;;;;;;6.97;4.22;;;;;;;10.85;67.69;98170.56;4996828;28;19932;-92
2024/04/18 06:11:42;;;;;;;12.35;5.35;;;;;;;10.78;66.26;98154.81;4994666;28;20023;-94
2024/04/18 06:14:20;;;;;;;8.57;4.10;;;;;;;10.75;66.34;98146.53;5023879;28;20027;-93
2024/04/18 06:16:52;;;;;;;10.80;4.95;;;;;;;10.79;67.68;98144.84;5002496;28;20008;-94
2024/04/18 06:19:42;;;;;;;31.63;16.70;;;;;;;10.79;65.79;98139.47;5000884;28;20334;-93
2024/04/18 06:22:08;;;;;;;53.58;29.15;;;;;;;10.94;65.05;98149.16;5001473;28;20004;-93
2024/04/18 06:24:34;;;;;;;10.27;4.07;;;;;;;11.05;65.09;98148.63;4998662;28;20008;-94
2024/04/18 06:27:00;;;;;;;6.78;3.60;;;;;;;11.23;63.57;98140.72;4994180;28;20040;-93
2024/04/18 06:29:28;;;;;;;7.80;4.07;;;;;;;11.51;62.78;98157.59;4993309;28;20317;-92
2024/04/18 06:32:07;;;;;;;5.32;3.63;;;;;;;11.71;61.38;98150.94;4994306;28;20012;-93
2024/04/18 06:34:33;;;;;;;6.75;3.35;;;;;;;11.93;59.36;98150.97;4996068;28;20040;-94
2024/04/18 06:37:06;;;;;;;8.52;3.53;;;;;;;11.95;59.36;98156.03;4998353;28;20004;-94
2024/04/18 06:39:32;;;;;;;8.32;3.30;;;;;;;12.27;58.51;98175.78;4995928;28;20019;-93
2024/04/18 06:42:02;;;;;;;6.28;3.00;;;;;;;12.38;58.75;98158.22;4974720;28;20008;-93
2024/04/18 06:44:44;;;;;;;8.68;2.75;;;;;;;12.63;59.02;98175.63;5005230;28;20018;-92
2024/04/18 06:47:10;;;;;;;4.95;3.03;;;;;;;12.65;57.47;98178.03;5026424;28;20022;-92
2024/04/18 06:50:27;;;;;;;;;;;;;;;;;;;;;
2024/04/18 06:52:53;;;;;;;3.60;2.45;;;;;;;12.69;54.92;98195.22;4999808;28;20055;-91
2024/04/18 06:55:51;;;;;;;7.68;3.15;;;;;;;12.68;55.92;98167.41;4996615;28;20017;-94
2024/04/18 06:58:19;;;;;;;6.97;3.30;;;;;;;12.65;54.81;98186.13;5023700;28;20037;-93
2024/04/18 07:01:04;;;;;;;14.95;3.92;;;;;;;12.63;57.30;98209.94;4972581;28;20448;-94
2024/04/18 07:03:50;;;;;;;8.55;3.08;;;;;;;12.60;55.38;98181.66;4993261;28;20344;-93
2024/04/18 07:09:30;;;;;;;7.18;3.35;;;;;;;13.02;54.15;98190.25;4916106;29;20047;-90
2024/04/18 07:12:30;;;;;;;;;;;;;;;;;;;;;
2024/04/18 07:15:00;;;;;;;3.30;2.53;;;;;;;12.79;52.88;98192.22;4911577;29;20154;-94
2024/04/18 07:17:44;;;;;;;4.60;2.78;;;;;;;12.80;55.70;98191.09;4904414;29;20011;-93
2024/04/18 07:20:10;;;;;;;3.20;2.33;;;;;;;13.07;53.37;98214.44;4913949;29;20006;-90
2024/04/18 07:22:41;;;;;;;10.02;6.43;;;;;;;13.21;54.89;98202.69;4913468;29;20006;-91
2024/04/18 07:25:10;;;;;;;4.35;2.92;;;;;;;13.33;52.43;98178.56;4899143;29;20053;-91
2024/04/18 07:27:39;;;;;;;3.88;2.58;;;;;;;13.52;51.92;98178.28;4899579;29;20066;-92
2024/04/18 07:30:08;;;;;;;9.13;4.30;;;;;;;13.54;51.95;98182.25;4901300;29;20010;-92
2024/04/18 07:33:14;;;;;;;2.88;2.22;;;;;;;13.56;50.78;98194.66;4904643;29;20007;-93
2024/04/18 07:36:45;;;;;;;2.90;2.10;;;;;;;13.59;50.95;98181.28;4884051;29;20045;-92
2024/04/18 07:39:20;;;;;;;5.17;2.70;;;;;;;13.82;51.64;98195.47;4897438;28;20027;-90
2024/04/18 07:41:47;;;;;;;4.65;2.58;;;;;;;13.84;50.31;98211.38;4956978;29;20010;-95
2024/04/18 07:44:50;;;;;;;;;;;;;;;;;;;;;
2024/04/18 07:48:04;;;;;;;4.88;3.03;;;;;;;14.23;50.76;98232.06;5008596;28;20455;-96
2024/04/18 07:50:40;;;;;;;3.95;2.30;;;;;;;14.31;48.46;98197.97;4931686;29;20084;-95
2024/04/18 07:57:03;;;;;;;;;;;;;;;;;;;;;
2024/04/18 08:00:13;;;;;;;3.22;1.98;;;;;;;14.00;48.28;98211.69;4949940;29;20009;-96
2024/04/18 08:03:21;;;;;;;3.58;2.83;;;;;;;14.02;49.83;98206.75;4967711;28;20098;-96
2024/04/18 08:06:10;;;;;;;4.72;2.47;;;;;;;14.13;50.29;98235.09;4960906;28;20093;-96
2024/04/18 08:08:44;;;;;;;3.10;1.70;;;;;;;14.13;47.88;98211.53;4992295;28;20004;-96
2024/04/18 08:11:36;;;;;;;4.82;2.10;;;;;;;14.07;47.37;98217.41;4984180;28;20077;-95
2024/04/18 08:14:37;;;;;;;4.18;2.47;;;;;;;13.92;47.48;98216.81;4934664;28;20531;-94
2024/04/18 08:17:05;;;;;;;5.43;2.30;;;;;;;13.75;48.89;98206.75;5008475;28;20004;-94
2024/04/18 08:19:47;;;;;;;2.00;1.60;;;;;;;13.87;47.57;98208.84;5037919;28;20111;-96
2024/04/18 08:22:24;;;;;;;3.10;2.00;;;;;;;13.79;48.61;98217.75;4966885;29;20005;-95
2024/04/18 08:28:00;;;;;;;8.93;2.13;;;;;;;13.95;50.51;98237.03;5395293;22;20025;-96
2024/04/18 08:30:39;;;;;;;6.22;2.45;;;;;;;13.74;49.82;98207.88;5170127;27;20004;-94
2024/04/18 08:36:27;;;;;;;6.20;2.15;;;;;;;13.75;50.47;98203.25;5076381;28;20026;-95
2024/04/18 08:38:53;;;;;;;;;;;;;;;13.86;49.88;98234.31;5099332;27;20011;-96
2024/04/18 08:48:34;;;;;;;;;;;;;;;;;;;;;
2024/04/18 09:01:05;;;;;;;;;;;;;;;;;;;;;
2024/04/18 09:04:14;;;;;;;;;;;;;;;;;;;;;
2024/04/18 09:10:17;;;;;;;5.32;2.28;;;;;;;14.36;46.54;98230.31;5063338;27;20006;-96
2024/04/18 09:13:21;;;;;;;2.03;1.50;;;;;;;14.60;45.95;98262.28;5014997;28;20062;-96
2024/04/18 09:31:25;;;;;;;2.60;1.17;;;;;;;14.80;43.44;98262.75;5081661;27;20038;-93
2024/04/18 09:54:31;;;;;;;2.92;1.15;;;;;;;14.49;45.30;98225.81;5048792;28;20162;-95
2024/04/18 09:57:13;;;;;;;;;;;;;;;;;;;;;
2024/04/18 09:59:50;;;;;;;;;;;;;;;;;;;;;
2024/04/18 10:02:25;;;;;;;3.97;1.77;;;;;;;15.09;43.65;98232.16;5061600;28;20018;-94
2024/04/18 10:04:56;;;;;;;3.63;1.15;;;;;;;15.07;42.95;98216.22;5044552;28;20007;-93
2024/04/18 10:07:24;;;;;;;1.27;0.90;;;;;;;14.94;41.59;98220.75;5053441;28;20002;-94
2024/04/18 10:09:50;;;;;;;1.50;0.85;;;;;;;14.99;41.53;98208.94;4996515;28;20008;-90
2024/04/18 10:12:19;;;;;;;1.88;1.25;;;;;;;15.02;42.38;98212.88;5046981;28;20076;-91
2024/04/18 10:15:07;;;;;;;2.03;0.88;;;;;;;14.89;41.65;98199.22;5017067;28;20011;-94
2024/04/18 10:17:40;;;;;;;4.47;3.17;;;;;;;15.06;41.70;98222.75;5004947;28;20003;-95
2024/04/18 10:20:15;;;;;;;1.73;1.10;;;;;;;15.16;42.30;98229.72;5012622;28;20027;-95
2024/04/18 10:22:56;;;;;;;1.67;1.35;;;;;;;15.10;41.05;98215.56;5039178;28;20012;-94
2024/04/18 10:29:22;;;;;;;3.28;1.10;;;;;;;14.93;43.71;98202.09;5047438;28;20023;-96
2024/04/18 10:31:59;;;;;;;2.13;0.98;;;;;;;15.07;42.70;98240.63;4964860;28;20089;-95
2024/04/18 10:34:34;;;;;;;1.63;1.08;;;;;;;14.71;43.20;98217.50;4992532;28;20049;-95
2024/04/18 10:37:27;;;;;;;1.67;1.00;;;;;;;14.21;45.58;98231.56;5001153;28;20028;-95
2024/04/18 10:39:57;;;;;;;1.10;0.90;;;;;;;14.35;45.21;98242.22;4975903;28;20012;-93
2024/04/18 10:42:24;;;;;;;2.33;1.23;;;;;;;14.44;45.79;98237.59;4986319;28;20009;-94
2024/04/18 10:44:51;;;;;;;1.70;0.98;;;;;;;14.30;45.82;98256.75;4965441;28;20094;-96
2024/04/18 10:53:54;;;;;;;3.03;1.30;;;;;;;13.68;48.06;98265.19;4973014;28;20008;-96
2024/04/18 10:56:21;;;;;;;3.83;1.15;;;;;;;13.65;47.93;98263.88;4977778;28;20507;-94
2024/04/18 10:59:27;;;;;;;1.98;1.17;;;;;;;13.67;46.01;98268.97;5000689;28;20010;-95
2024/04/18 11:02:09;;;;;;;5.93;1.60;;;;;;;13.63;45.92;98262.59;4975335;28;20116;-95
2024/04/18 11:05:12;;;;;;;2.50;0.82;;;;;;;13.77;46.06;98278.69;4995210;28;20008;-95
2024/04/18 11:31:06;;;;;;;2.28;1.50;;;;;;;15.19;42.94;98279.78;5354762;22;20012;-93
2024/04/18 11:38:12;;;;;;;;;;;;;;;;;;;;;
2024/04/18 11:41:46;;;;;;;;;;;;;;;;;;;;;
2024/04/18 11:56:48;;;;;;;2.97;1.23;;;;;;;15.49;40.58;98262.41;5191485;27;20011;-94
2024/04/18 12:03:12;;;;;;;;;;;;;;;;;;;;;
2024/04/18 12:05:45;;;;;;;6.25;1.40;;;;;;;15.69;39.22;98279.84;5169490;27;20005;-93
2024/04/18 12:08:14;;;;;;;2.65;1.85;;;;;;;15.79;40.64;98270.53;5112245;27;20021;-95
2024/04/18 12:10:42;;;;;;;1.98;1.38;;;;;;;15.95;40.76;98271.53;5126352;27;20084;-95
2024/04/18 12:13:31;;;;;;;3.03;1.88;;;;;;;15.94;38.08;98256.41;5109200;27;20088;-96
2024/04/18 12:16:04;;;;;;;1.80;1.50;;;;;;;15.92;37.30;98266.78;5153635;27;20339;-95
2024/04/18 12:21:43;;;;;;;4.95;1.45;;;;;;;16.10;34.75;98263.94;5118075;27;20331;-91
2024/04/18 12:38:20;;;;;;;5.72;1.73;;;;;;;15.98;37.91;98269.28;5074166;28;20010;-96
2024/04/18 12:48:10;;;;;;;1.88;1.40;;;;;;;16.27;37.13;98269.22;5047581;28;19999;-95
2024/04/18 12:50:44;;;;;;;4.78;2.13;;;;;;;16.00;37.90;98265.16;5028225;28;20101;-96
2024/04/18 12:53:55;;;;;;;3.20;1.48;;;;;;;16.09;37.67;98248.78;5039759;28;20049;-96
